Time;durP1;ratioP1;P1;durP2;ratioP2;P2;SDS_P1;SDS_P2;PMS_P1;PMS_P2;Temp;Humidity;BMP_temperature;BMP_pressure;BME280_temperature;BME280_humidity;BME280_pressure;Samples;Min_cycle;Max_cycle;Signal;HPM_P1;HPM_P2
2023/09/22 00:01:36;;;;;;;0.85;0.20;;;;;;;17.01;100.00;96897.47;15270113;19;20014;-56
2023/09/22 00:07:04;;;;;;;0.52;0.25;;;;;;;16.82;100.00;96904.94;15267243;19;20492;-52
2023/09/22 00:12:28;;;;;;;1.75;0.40;;;;;;;16.59;100.00;96933.78;15272504;19;20436;-54
2023/09/22 00:17:54;;;;;;;0.65;0.30;;;;;;;16.40;100.00;96956.72;15260438;19;20017;-54
2023/09/22 00:23:22;;;;;;;1.67;0.28;;;;;;;16.21;100.00;96986.69;15261632;19;20085;-55
2023/09/22 00:28:47;;;;;;;0.70;0.30;;;;;;;16.11;100.00;97024.47;15270371;19;20042;-57
2023/09/22 00:34:11;;;;;;;2.47;0.40;;;;;;;15.99;100.00;97066.00;15269201;19;20022;-57
2023/09/22 00:39:39;;;;;;;0.70;0.30;;;;;;;15.92;100.00;97087.00;15269892;19;20036;-53
2023/09/22 00:45:03;;;;;;;0.50;0.30;;;;;;;15.85;100.00;97105.25;15267820;19;20022;-53
2023/09/22 00:50:28;;;;;;;0.75;0.30;;;;;;;15.78;100.00;97118.06;15273089;19;20015;-57
2023/09/22 00:55:59;;;;;;;1.25;0.40;;;;;;;15.75;100.00;97140.22;15270260;19;20025;-55
2023/09/22 01:01:25;;;;;;;0.47;0.30;;;;;;;15.69;100.00;97169.94;15282503;19;20018;-56
2023/09/22 01:06:52;;;;;;;1.05;0.30;;;;;;;15.71;100.00;97177.84;15277991;19;20070;-57
2023/09/22 01:12:20;;;;;;;0.70;0.30;;;;;;;15.74;100.00;97190.16;15281040;19;20366;-57
2023/09/22 01:17:47;;;;;;;1.60;0.40;;;;;;;15.75;100.00;97206.22;15270616;19;20027;-58
2023/09/22 01:23:16;;;;;;;0.25;0.25;;;;;;;15.82;100.00;97208.84;15279363;19;20081;-53
2023/09/22 01:28:40;;;;;;;0.95;0.40;;;;;;;15.82;100.00;97201.53;15275334;19;20019;-54
2023/09/22 01:34:08;;;;;;;0.60;0.38;;;;;;;15.89;100.00;97222.38;15277034;19;20010;-53
2023/09/22 01:39:35;;;;;;;0.80;0.47;;;;;;;15.88;100.00;97229.72;15279416;19;20459;-54
2023/09/22 01:45:02;;;;;;;0.63;0.40;;;;;;;15.84;100.00;97237.50;15275187;19;20098;-55
2023/09/22 01:50:26;;;;;;;0.85;0.40;;;;;;;15.84;100.00;97225.75;15274155;19;20012;-53
2023/09/22 01:55:54;;;;;;;0.93;0.30;;;;;;;15.81;100.00;97220.78;15276833;19;20017;-53
2023/09/22 02:01:19;;;;;;;0.57;0.38;;;;;;;15.77;100.00;97192.41;15276331;19;20031;-59
2023/09/22 02:06:44;;;;;;;0.63;0.30;;;;;;;15.74;100.00;97187.44;15271531;19;20018;-56
2023/09/22 02:12:11;;;;;;;1.73;0.35;;;;;;;15.70;100.00;97177.00;15279294;19;20495;-53
2023/09/22 02:17:36;;;;;;;0.70;0.30;;;;;;;15.66;100.00;97143.25;15271551;19;20014;-54
2023/09/22 02:23:03;;;;;;;0.38;0.20;;;;;;;15.67;100.00;97135.91;15270424;19;20022;-56
2023/09/22 02:28:32;;;;;;;0.30;0.30;;;;;;;15.64;100.00;97145.34;15270253;19;20028;-56
2023/09/22 02:33:56;;;;;;;0.52;0.30;;;;;;;15.61;100.00;97126.78;15276512;19;20010;-55
2023/09/22 02:39:21;;;;;;;0.43;0.20;;;;;;;15.60;100.00;97111.56;15276114;19;20025;-55
2023/09/22 02:44:51;;;;;;;0.20;0.20;;;;;;;15.57;100.00;97112.84;15272739;19;20086;-55
2023/09/22 02:50:19;;;;;;;0.32;0.20;;;;;;;15.53;100.00;97121.66;15275824;19;20028;-52
2023/09/22 02:55:45;;;;;;;0.75;0.25;;;;;;;15.49;100.00;97098.72;15263781;19;20019;-53
2023/09/22 03:01:14;;;;;;;0.30;0.20;;;;;;;15.45;100.00;97102.97;15268257;19;20042;-56
2023/09/22 03:06:38;;;;;;;0.45;0.17;;;;;;;15.41;100.00;97114.25;15271468;19;20101;-54
2023/09/22 03:12:03;;;;;;;0.30;0.20;;;;;;;15.34;100.00;97139.81;15271746;19;20014;-56
2023/09/22 03:17:31;;;;;;;0.20;0.10;;;;;;;15.31;100.00;97124.81;15268415;19;20045;-52
2023/09/22 03:22:57;;;;;;;0.45;0.30;;;;;;;15.33;100.00;97109.13;15270876;19;20019;-57
2023/09/22 03:28:22;;;;;;;0.32;0.20;;;;;;;15.35;100.00;97098.88;15263136;19;20283;-56
2023/09/22 03:33:50;;;;;;;1.27;0.30;;;;;;;15.37;100.00;97106.81;15265878;19;20018;-54
2023/09/22 03:39:16;;;;;;;0.43;0.20;;;;;;;15.38;100.00;97124.75;15267438;19;20031;-56
2023/09/22 03:44:41;;;;;;;0.20;0.20;;;;;;;15.37;100.00;97137.47;15266966;19;20622;-54
2023/09/22 03:50:08;;;;;;;1.25;0.30;;;;;;;15.37;100.00;97123.91;15269460;19;20018;-57
2023/09/22 03:55:33;;;;;;;0.40;0.20;;;;;;;15.39;100.00;97135.38;15264339;19;20022;-56
2023/09/22 04:00:57;;;;;;;0.35;0.20;;;;;;;15.43;100.00;97134.94;15262993;19;20015;-55
2023/09/22 04:06:26;;;;;;;0.50;0.20;;;;;;;15.41;100.00;97141.41;15259311;19;20018;-57
2023/09/22 04:11:53;;;;;;;0.28;0.28;;;;;;;15.43;100.00;97138.47;15269535;19;20020;-64
2023/09/22 04:17:19;;;;;;;0.22;0.22;;;;;;;15.43;100.00;97153.94;15262003;19;20109;-57
2023/09/22 04:22:53;;;;;;;0.68;0.40;;;;;;;15.42;100.00;97144.94;15268515;19;20019;-55
2023/09/22 04:28:23;;;;;;;0.50;0.20;;;;;;;15.41;100.00;97125.13;15269081;19;20010;-57
2023/09/22 04:33:48;;;;;;;0.43;0.40;;;;;;;15.41;100.00;97116.13;15262089;19;20020;-52
2023/09/22 04:39:16;;;;;;;1.02;0.40;;;;;;;15.40;100.00;97123.47;15262016;19;20010;-57
2023/09/22 04:44:40;;;;;;;0.90;0.30;;;;;;;15.40;100.00;97131.59;15263449;19;20029;-55
2023/09/22 04:50:06;;;;;;;0.20;0.20;;;;;;;15.37;100.00;97125.81;15265780;19;20022;-57
2023/09/22 04:55:35;;;;;;;0.52;0.30;;;;;;;15.30;100.00;97128.56;15263271;19;20015;-57
2023/09/22 05:01:01;;;;;;;1.77;0.50;;;;;;;15.27;100.00;97129.00;15267243;19;20355;-57
2023/09/22 05:06:27;;;;;;;0.50;0.30;;;;;;;15.19;100.00;97165.38;15253779;19;20086;-54
2023/09/22 05:11:55;;;;;;;0.50;0.30;;;;;;;15.12;100.00;97169.22;15261759;19;20046;-58
2023/09/22 05:17:19;;;;;;;0.57;0.32;;;;;;;15.08;100.00;97153.41;15257307;19;20085;-55
2023/09/22 05:22:45;;;;;;;0.30;0.25;;;;;;;15.07;100.00;97159.88;15262562;19;20543;-53
2023/09/22 05:28:13;;;;;;;0.50;0.30;;;;;;;15.08;100.00;97168.81;15258080;19;20021;-53
2023/09/22 05:33:38;;;;;;;1.00;0.30;;;;;;;15.07;100.00;97195.13;15267080;19;20045;-55
2023/09/22 05:39:08;;;;;;;0.63;0.43;;;;;;;15.05;100.00;97180.97;15272119;19;20464;-52
2023/09/22 05:44:36;;;;;;;0.40;0.30;;;;;;;15.04;100.00;97173.88;15272764;19;20021;-52
2023/09/22 05:50:02;;;;;;;1.00;0.43;;;;;;;15.04;100.00;97178.47;15281154;19;20359;-53
2023/09/22 05:55:28;;;;;;;0.68;0.40;;;;;;;15.03;100.00;97201.22;15278068;19;20082;-56
2023/09/22 06:00:56;;;;;;;1.23;0.40;;;;;;;15.03;100.00;97207.47;15277200;19;20011;-55
2023/09/22 06:06:21;;;;;;;0.45;0.30;;;;;;;15.04;100.00;97206.41;15275470;19;20017;-56
2023/09/22 06:11:47;;;;;;;1.15;0.30;;;;;;;15.05;100.00;97191.81;15271558;19;20033;-55
2023/09/22 06:17:15;;;;;;;0.63;0.40;;;;;;;15.07;100.00;97197.84;15269070;19;20482;-52
2023/09/22 06:22:40;;;;;;;0.40;0.40;;;;;;;15.11;100.00;97192.81;15277991;19;20580;-53
2023/09/22 06:28:07;;;;;;;1.08;0.55;;;;;;;15.12;100.00;97197.19;15272855;19;20011;-58
2023/09/22 06:33:35;;;;;;;2.25;0.43;;;;;;;15.12;100.00;97215.31;15279230;19;20046;-58
2023/09/22 06:39:04;;;;;;;1.00;0.40;;;;;;;15.08;100.00;97240.19;15277316;19;20348;-56
2023/09/22 06:44:30;;;;;;;1.65;0.50;;;;;;;15.06;100.00;97247.72;15268064;19;20018;-58
2023/09/22 06:49:59;;;;;;;1.15;0.60;;;;;;;15.04;100.00;97259.84;15270704;19;20364;-56
2023/09/22 06:55:23;;;;;;;0.93;0.45;;;;;;;14.99;100.00;97268.63;15273305;19;20341;-56
2023/09/22 07:00:48;;;;;;;0.77;0.43;;;;;;;14.91;100.00;97280.56;15276904;19;20297;-56
2023/09/22 07:06:17;;;;;;;0.70;0.50;;;;;;;14.92;100.00;97286.81;15251742;19;20364;-56
2023/09/22 07:11:42;;;;;;;0.70;0.50;;;;;;;14.90;100.00;97286.19;15276946;19;20018;-56
2023/09/22 07:17:07;;;;;;;0.50;0.50;;;;;;;14.94;100.00;97287.44;15266405;19;20042;-57
2023/09/22 07:22:35;;;;;;;1.00;0.47;;;;;;;15.00;100.00;97291.97;15268818;19;20077;-57
2023/09/22 07:28:00;;;;;;;2.33;0.50;;;;;;;15.07;100.00;97314.47;15271091;19;20506;-58
2023/09/22 07:33:30;;;;;;;0.80;0.50;;;;;;;15.08;100.00;97293.59;15272391;19;20089;-57
2023/09/22 07:38:57;;;;;;;2.05;0.50;;;;;;;15.13;100.00;97271.22;15268703;19;20018;-53
2023/09/22 07:44:26;;;;;;;0.70;0.50;;;;;;;15.08;100.00;97286.31;15268699;19;20027;-58
2023/09/22 07:49:54;;;;;;;3.15;0.40;;;;;;;15.04;100.00;97268.78;15270725;19;20018;-57
2023/09/22 07:55:22;;;;;;;0.82;0.40;;;;;;;14.96;100.00;97260.94;15267447;19;20010;-57
2023/09/22 08:00:47;;;;;;;1.13;0.50;;;;;;;14.94;100.00;97266.56;15270394;19;20021;-57
2023/09/22 08:06:13;;;;;;;1.65;0.55;;;;;;;14.92;100.00;97284.94;15268834;19;20022;-57
2023/09/22 08:11:41;;;;;;;1.65;0.43;;;;;;;14.91;100.00;97277.84;15272884;19;20074;-53
2023/09/22 08:17:07;;;;;;;1.23;0.60;;;;;;;14.89;100.00;97295.38;15261865;19;20594;-53
2023/09/22 08:22:33;;;;;;;1.20;0.60;;;;;;;14.84;100.00;97297.91;15268705;19;20019;-56
2023/09/22 08:28:01;;;;;;;1.52;0.40;;;;;;;14.78;100.00;97313.97;15262756;19;20021;-52
2023/09/22 08:33:25;;;;;;;0.85;0.47;;;;;;;14.79;100.00;97296.66;15269456;19;20017;-56
2023/09/22 08:38:51;;;;;;;0.70;0.50;;;;;;;14.82;100.00;97300.81;15270484;19;20007;-55
2023/09/22 08:44:19;;;;;;;0.63;0.40;;;;;;;14.82;100.00;97308.13;15268790;19;20778;-58
2023/09/22 08:49:44;;;;;;;2.20;0.50;;;;;;;14.86;100.00;97302.06;15262200;19;20362;-56
2023/09/22 08:55:08;;;;;;;1.70;0.57;;;;;;;14.90;100.00;97292.47;15267794;19;20014;-56
2023/09/22 09:00:36;;;;;;;0.90;0.50;;;;;;;14.94;100.00;97290.97;15266322;19;20301;-53
2023/09/22 09:06:17;;;;;;;1.02;0.60;;;;;;;14.98;100.00;97282.41;15266343;19;20371;-56
2023/09/22 09:12:00;;;;;;;0.40;0.40;;;;;;;15.07;100.00;97260.22;15276382;19;20404;-57
2023/09/22 09:17:31;;;;;;;0.82;0.50;;;;;;;15.17;100.00;97242.63;15279286;19;20473;-56
2023/09/22 09:22:55;;;;;;;0.60;0.52;;;;;;;15.23;100.00;97239.03;15274717;19;20035;-56
2023/09/22 09:28:20;;;;;;;0.88;0.57;;;;;;;15.32;100.00;97251.28;15276596;19;20636;-57
2023/09/22 09:33:54;;;;;;;1.13;0.40;;;;;;;15.38;100.00;97263.97;15281675;19;20020;-56
2023/09/22 09:39:18;;;;;;;1.65;0.57;;;;;;;15.45;100.00;97276.66;15281696;19;20723;-54
2023/09/22 09:44:50;;;;;;;1.77;0.55;;;;;;;15.47;100.00;97269.09;15279718;19;20842;-57
2023/09/22 09:50:20;;;;;;;0.90;0.50;;;;;;;15.49;100.00;97240.72;15278836;19;20015;-55
2023/09/22 09:55:45;;;;;;;1.10;0.50;;;;;;;15.57;100.00;97250.47;15271448;19;20094;-56
2023/09/22 10:01:13;;;;;;;1.60;0.50;;;;;;;15.53;100.00;97243.81;15274662;19;20010;-54
2023/09/22 10:06:42;;;;;;;0.60;0.50;;;;;;;15.55;100.00;97244.41;15274973;19;20030;-54
2023/09/22 10:12:10;;;;;;;0.80;0.60;;;;;;;15.61;100.00;97259.00;15281071;19;20355;-54
2023/09/22 10:17:35;;;;;;;0.95;0.60;;;;;;;15.65;100.00;97269.19;15277009;19;20501;-56
2023/09/22 10:23:27;;;;;;;1.10;0.70;;;;;;;15.70;100.00;97284.78;15275417;19;20013;-53
2023/09/22 10:28:52;;;;;;;1.70;0.60;;;;;;;15.69;100.00;97278.53;15272027;19;20036;-57
2023/09/22 10:34:47;;;;;;;1.13;0.57;;;;;;;15.76;100.00;97266.78;15269846;19;20022;-55
2023/09/22 10:40:18;;;;;;;0.95;0.40;;;;;;;15.86;100.00;97297.00;15276823;19;20018;-56
2023/09/22 10:45:43;;;;;;;0.98;0.50;;;;;;;15.98;100.00;97311.50;15275227;19;20017;-56
2023/09/22 10:51:08;;;;;;;1.05;0.43;;;;;;;16.10;100.00;97311.63;15278114;19;20508;-56
2023/09/22 10:56:36;;;;;;;0.98;0.50;;;;;;;16.19;100.00;97309.41;15270767;19;20361;-56
2023/09/22 11:02:01;;;;;;;1.60;0.60;;;;;;;16.28;100.00;97293.66;15267289;19;20045;-55
2023/09/22 11:07:39;;;;;;;2.05;0.50;;;;;;;16.30;100.00;97300.53;15264335;19;20058;-56
2023/09/22 11:13:06;;;;;;;1.80;0.60;;;;;;;16.35;100.00;97305.28;15275434;19;20360;-57
2023/09/22 11:18:33;;;;;;;1.20;0.60;;;;;;;16.37;100.00;97303.16;15271436;19;20134;-55
2023/09/22 11:24:05;;;;;;;1.33;0.40;;;;;;;16.46;100.00;97304.53;15270308;19;20444;-58
2023/09/22 11:29:33;;;;;;;0.75;0.40;;;;;;;16.52;100.00;97302.81;15274549;19;20020;-56
2023/09/22 11:34:58;;;;;;;1.63;0.50;;;;;;;16.60;100.00;97293.50;15265766;19;20687;-53
2023/09/22 11:40:42;;;;;;;0.52;0.47;;;;;;;16.62;100.00;97303.09;15272252;19;20062;-55
2023/09/22 11:46:18;;;;;;;0.73;0.57;;;;;;;16.64;100.00;97295.53;15273663;19;20022;-57
2023/09/22 11:51:45;;;;;;;0.80;0.47;;;;;;;16.72;100.00;97301.72;15277347;19;20392;-57
2023/09/22 11:57:10;;;;;;;0.77;0.40;;;;;;;16.78;100.00;97289.91;15268889;19;20025;-57
2023/09/22 12:02:37;;;;;;;1.45;0.45;;;;;;;16.85;100.00;97296.13;15266296;19;20027;-55
2023/09/22 12:08:02;;;;;;;1.27;0.40;;;;;;;16.89;100.00;97286.41;15269268;19;20042;-51
2023/09/22 12:13:26;;;;;;;2.58;0.40;;;;;;;16.93;100.00;97287.63;15268148;19;20007;-56
2023/09/22 12:18:54;;;;;;;0.82;0.40;;;;;;;17.04;100.00;97286.06;15272045;19;20011;-52
2023/09/22 12:24:25;;;;;;;0.63;0.40;;;;;;;17.18;100.00;97281.25;15268538;19;20018;-56
2023/09/22 12:29:49;;;;;;;1.58;0.55;;;;;;;17.24;100.00;97293.91;15269567;19;20039;-54
2023/09/22 12:35:18;;;;;;;0.73;0.50;;;;;;;17.27;100.00;97281.75;15263326;19;20085;-57
2023/09/22 12:40:42;;;;;;;0.77;0.45;;;;;;;17.33;100.00;97290.88;15271855;19;20085;-57
2023/09/22 12:46:08;;;;;;;0.77;0.40;;;;;;;17.25;100.00;97290.13;15264467;19;20014;-58
2023/09/22 12:51:36;;;;;;;0.60;0.30;;;;;;;17.25;100.00;97287.41;15270836;19;20070;-57
2023/09/22 12:57:01;;;;;;;0.60;0.50;;;;;;;17.19;100.00;97285.63;15271806;19;20036;-58
2023/09/22 13:02:26;;;;;;;0.60;0.50;;;;;;;17.24;100.00;97295.81;15273037;19;20013;-58
2023/09/22 13:07:54;;;;;;;0.75;0.43;;;;;;;17.25;100.00;97286.59;15256137;19;20110;-55
2023/09/22 13:13:19;;;;;;;0.63;0.40;;;;;;;17.33;100.00;97291.69;15266761;19;20073;-57
2023/09/22 13:18:46;;;;;;;1.10;0.50;;;;;;;17.38;100.00;97285.56;15260289;19;20090;-58
2023/09/22 13:24:21;;;;;;;0.65;0.40;;;;;;;17.46;100.00;97279.78;15264444;19;20018;-54
2023/09/22 13:29:46;;;;;;;0.75;0.50;;;;;;;17.48;100.00;97272.19;15266802;19;20017;-56
2023/09/22 13:35:12;;;;;;;1.15;0.40;;;;;;;17.40;100.00;97275.25;15264930;19;20022;-59
2023/09/22 13:40:40;;;;;;;0.90;0.50;;;;;;;17.39;100.00;97279.03;15262431;19;20017;-56
2023/09/22 13:46:04;;;;;;;0.60;0.40;;;;;;;17.32;100.00;97294.66;15261696;19;20010;-55
2023/09/22 13:51:32;;;;;;;0.25;0.25;;;;;;;17.30;100.00;97296.78;15268136;19;20013;-55
2023/09/22 13:56:59;;;;;;;0.45;0.40;;;;;;;17.18;100.00;97311.19;15266271;19;20011;-56
2023/09/22 14:02:24;;;;;;;0.55;0.30;;;;;;;16.99;100.00;97301.41;15282250;19;20510;-53
2023/09/22 14:07:51;;;;;;;1.40;0.32;;;;;;;17.00;100.00;97319.38;15273707;19;20511;-56
2023/09/22 14:13:19;;;;;;;0.93;0.40;;;;;;;17.04;100.00;97318.72;15275429;19;20073;-57
2023/09/22 14:18:44;;;;;;;1.95;0.32;;;;;;;17.13;100.00;97302.88;15274696;19;20025;-57
2023/09/22 14:24:09;;;;;;;0.93;0.40;;;;;;;17.09;100.00;97309.84;15276275;19;20082;-55
2023/09/22 14:29:37;;;;;;;0.47;0.30;;;;;;;17.04;100.00;97288.78;15275325;19;20015;-56
2023/09/22 14:35:02;;;;;;;0.85;0.43;;;;;;;17.02;100.00;97273.72;15276172;19;20392;-55
2023/09/22 14:40:26;;;;;;;0.45;0.20;;;;;;;17.02;100.00;97273.72;15273478;19;20016;-55
2023/09/22 14:45:53;;;;;;;0.63;0.40;;;;;;;16.97;100.00;97268.97;15267816;19;20021;-56
2023/09/22 14:51:18;;;;;;;1.10;0.40;;;;;;;16.96;100.00;97269.22;15268641;19;20805;-54
2023/09/22 14:56:42;;;;;;;0.40;0.30;;;;;;;16.94;100.00;97266.72;15274156;19;20014;-54
2023/09/22 15:02:10;;;;;;;2.15;0.50;;;;;;;16.93;100.00;97255.00;15278388;19;20014;-55
2023/09/22 15:07:36;;;;;;;0.70;0.40;;;;;;;16.97;100.00;97282.59;15273560;19;20479;-56
2023/09/22 15:13:02;;;;;;;1.15;0.43;;;;;;;16.95;100.00;97295.59;15277108;19;20069;-55
2023/09/22 15:18:30;;;;;;;0.60;0.50;;;;;;;16.96;100.00;97296.44;15298793;19;20015;-55
2023/09/22 15:24:03;;;;;;;0.40;0.40;;;;;;;16.98;100.00;97295.13;15314686;19;20462;-57
2023/09/22 15:29:28;;;;;;;0.90;0.40;;;;;;;17.00;100.00;97286.72;15270740;19;20031;-57
2023/09/22 15:34:55;;;;;;;1.00;0.30;;;;;;;16.95;100.00;97295.59;15271926;19;20106;-55
2023/09/22 15:40:20;;;;;;;1.67;0.32;;;;;;;16.91;100.00;97327.00;15273226;19;20093;-56
2023/09/22 15:45:45;;;;;;;1.40;0.32;;;;;;;16.82;100.00;97301.19;15271504;19;20022;-59
2023/09/22 15:51:28;;;;;;;0.55;0.30;;;;;;;16.78;100.00;97289.91;15261768;19;20038;-58
2023/09/22 15:56:52;;;;;;;0.55;0.28;;;;;;;16.78;100.00;97295.34;15264079;19;20022;-54
2023/09/22 16:02:18;;;;;;;0.40;0.30;;;;;;;16.77;100.00;97323.63;15274500;19;20014;-56
2023/09/22 16:07:46;;;;;;;1.10;0.50;;;;;;;16.68;100.00;97344.88;15269415;19;20495;-55
2023/09/22 16:13:11;;;;;;;0.65;0.50;;;;;;;16.57;100.00;97332.84;15273303;19;20010;-57
2023/09/22 16:18:42;;;;;;;1.27;0.40;;;;;;;16.54;100.00;97336.00;15271544;19;20027;-58
2023/09/22 16:24:10;;;;;;;0.50;0.30;;;;;;;16.44;100.00;97344.72;15261849;19;20403;-58
2023/09/22 16:29:34;;;;;;;0.57;0.30;;;;;;;16.40;100.00;97339.97;15261462;19;20015;-58
2023/09/22 16:34:59;;;;;;;0.68;0.40;;;;;;;16.31;100.00;97350.28;15267639;19;20014;-57
2023/09/22 16:40:28;;;;;;;0.50;0.40;;;;;;;16.25;100.00;97362.88;15271146;19;20010;-55
2023/09/22 16:45:54;;;;;;;0.77;0.38;;;;;;;16.33;100.00;97359.06;15271183;19;20018;-53
2023/09/22 16:51:19;;;;;;;0.60;0.30;;;;;;;16.40;100.00;97383.44;15265614;19;20478;-54
2023/09/22 16:56:47;;;;;;;0.50;0.30;;;;;;;16.34;100.00;97374.31;15256703;19;20033;-54
2023/09/22 17:02:11;;;;;;;0.50;0.30;;;;;;;16.26;100.00;97363.72;15266046;19;20031;-58
2023/09/22 17:07:36;;;;;;;0.30;0.30;;;;;;;16.17;100.00;97374.03;15255594;19;20042;-56
2023/09/22 17:13:04;;;;;;;0.55;0.30;;;;;;;16.02;100.00;97402.38;15267196;19;20286;-56
2023/09/22 17:18:29;;;;;;;1.08;0.40;;;;;;;15.92;100.00;97391.19;15264616;19;20010;-54
2023/09/22 17:24:00;;;;;;;0.30;0.30;;;;;;;15.85;100.00;97395.81;15264117;19;20016;-56
2023/09/22 17:29:27;;;;;;;0.30;0.30;;;;;;;15.76;100.00;97413.41;15255379;19;20078;-57
2023/09/22 17:34:52;;;;;;;0.50;0.40;;;;;;;15.68;100.00;97401.78;15272430;19;20015;-55
2023/09/22 17:40:17;;;;;;;0.50;0.40;;;;;;;15.62;100.00;97408.06;15281684;19;20010;-52
2023/09/22 17:45:46;;;;;;;0.50;0.40;;;;;;;15.55;100.00;97407.28;15280070;19;20010;-53
2023/09/22 17:51:11;;;;;;;0.52;0.50;;;;;;;15.52;100.00;97402.28;15280489;19;20035;-58
2023/09/22 17:56:35;;;;;;;0.57;0.40;;;;;;;15.44;100.00;97407.97;15278314;19;20010;-53
2023/09/22 18:02:04;;;;;;;0.47;0.47;;;;;;;15.36;100.00;97407.16;15273364;19;20475;-55
2023/09/22 18:07:30;;;;;;;0.60;0.40;;;;;;;15.33;100.00;97413.06;15269243;19;20023;-55
2023/09/22 18:12:54;;;;;;;0.80;0.40;;;;;;;15.25;100.00;97413.28;15282024;19;20058;-54
2023/09/22 18:18:22;;;;;;;0.88;0.50;;;;;;;15.22;100.00;97409.13;15275765;19;20499;-53
2023/09/22 18:23:49;;;;;;;0.85;0.50;;;;;;;15.19;100.00;97408.72;15277796;19;20029;-55
2023/09/22 18:29:20;;;;;;;1.80;0.35;;;;;;;15.15;100.00;97419.19;15272623;19;20061;-54
2023/09/22 18:34:48;;;;;;;0.50;0.30;;;;;;;15.09;100.00;97418.16;15275842;19;20018;-55
2023/09/22 18:40:15;;;;;;;0.80;0.40;;;;;;;15.03;100.00;97424.44;15269876;19;20035;-55
2023/09/22 18:45:40;;;;;;;1.75;0.50;;;;;;;14.96;100.00;97426.34;15275955;19;20033;-55
2023/09/22 18:51:07;;;;;;;0.68;0.50;;;;;;;14.86;100.00;97423.25;15276045;19;20022;-53
2023/09/22 18:56:32;;;;;;;0.70;0.50;;;;;;;14.77;100.00;97425.38;15274351;19;20019;-51
2023/09/22 19:01:58;;;;;;;0.40;0.40;;;;;;;14.68;100.00;97419.34;15275086;19;20010;-53
2023/09/22 19:07:25;;;;;;;1.60;0.40;;;;;;;14.61;100.00;97426.63;15272623;19;20612;-55
2023/09/22 19:12:50;;;;;;;0.38;0.30;;;;;;;14.54;100.00;97429.34;15270473;19;20021;-54
2023/09/22 19:18:16;;;;;;;0.45;0.30;;;;;;;14.46;100.00;97435.81;15273140;19;20015;-52
2023/09/22 19:23:51;;;;;;;0.30;0.30;;;;;;;14.41;100.00;97437.50;15272618;19;20078;-53
2023/09/22 19:29:16;;;;;;;0.93;0.50;;;;;;;14.33;100.00;97449.38;15270324;19;20016;-53
2023/09/22 19:34:41;;;;;;;1.17;0.40;;;;;;;14.27;100.00;97461.06;15267772;19;20031;-53
2023/09/22 19:40:11;;;;;;;0.47;0.30;;;;;;;14.16;100.00;97452.53;15271117;19;20021;-53
2023/09/22 19:45:36;;;;;;;0.43;0.40;;;;;;;14.10;100.00;97461.47;15266603;19;20422;-55
2023/09/22 19:51:02;;;;;;;0.73;0.30;;;;;;;14.05;100.00;97463.97;15271387;19;20030;-53
2023/09/22 19:56:30;;;;;;;0.75;0.50;;;;;;;13.99;100.00;97459.38;15269248;19;20024;-52
2023/09/22 20:01:55;;;;;;;0.52;0.40;;;;;;;13.95;100.00;97475.22;15272614;19;20019;-56
2023/09/22 20:07:21;;;;;;;0.40;0.40;;;;;;;13.90;100.00;97469.56;15260306;19;20020;-54
2023/09/22 20:12:48;;;;;;;0.63;0.40;;;;;;;13.84;100.00;97473.94;15274320;19;20356;-55
2023/09/22 20:18:14;;;;;;;0.40;0.40;;;;;;;13.81;100.00;97474.38;15262684;19;20019;-54
2023/09/22 20:23:39;;;;;;;0.52;0.50;;;;;;;13.79;100.00;97487.28;15271144;19;20582;-56
2023/09/22 20:29:07;;;;;;;0.45;0.40;;;;;;;13.76;100.00;97506.63;15267666;19;20018;-55
2023/09/22 20:34:33;;;;;;;1.08;0.47;;;;;;;13.73;100.00;97508.91;14761300;19;10000661;-55
2023/09/22 20:39:58;;;;;;;1.02;0.30;;;;;;;13.69;100.00;97535.56;15262790;19;20481;-55
2023/09/22 20:45:27;;;;;;;0.40;0.40;;;;;;;13.69;100.00;97535.56;15268603;19;20024;-53
2023/09/22 20:50:54;;;;;;;1.45;1.13;;;;;;;13.74;100.00;97521.41;15260778;19;20566;-51
2023/09/22 20:56:19;;;;;;;1.50;0.32;;;;;;;13.74;100.00;97527.63;15266215;19;20482;-49
2023/09/22 21:01:48;;;;;;;0.30;0.30;;;;;;;13.73;100.00;97517.03;15266381;19;20014;-51
2023/09/22 21:07:13;;;;;;;0.65;0.40;;;;;;;13.68;100.00;97531.16;15269185;19;20021;-51
2023/09/22 21:12:38;;;;;;;0.38;0.38;;;;;;;13.66;100.00;97528.66;15275986;19;20030;-51
2023/09/22 21:18:07;;;;;;;0.73;0.30;;;;;;;13.65;100.00;97520.75;15276937;19;20091;-52
2023/09/22 21:23:38;;;;;;;0.47;0.40;;;;;;;13.62;100.00;97507.63;15281397;19;20035;-49
2023/09/22 21:29:05;;;;;;;1.52;0.30;;;;;;;13.60;100.00;97502.41;15280704;19;20535;-51
2023/09/22 21:34:34;;;;;;;1.80;0.50;;;;;;;13.57;100.00;97516.34;15281101;19;20394;-49
2023/09/22 21:39:59;;;;;;;0.50;0.50;;;;;;;13.55;100.00;97511.16;15281629;19;20081;-50
2023/09/22 21:45:23;;;;;;;0.52;0.38;;;;;;;13.52;100.00;97514.25;15272428;19;20391;-51
2023/09/22 21:50:50;;;;;;;0.75;0.30;;;;;;;13.49;100.00;97509.22;15272028;19;20385;-52
2023/09/22 21:56:15;;;;;;;1.00;0.30;;;;;;;13.47;100.00;97505.06;15277855;19;20385;-51
2023/09/22 22:01:40;;;;;;;0.47;0.30;;;;;;;13.41;100.00;97512.13;15281536;19;20019;-51
2023/09/22 22:07:12;;;;;;;0.45;0.30;;;;;;;13.38;100.00;97507.94;15277915;19;20011;-49
2023/09/22 22:12:37;;;;;;;0.60;0.35;;;;;;;13.35;100.00;97523.72;15282840;19;20007;-51
2023/09/22 22:18:01;;;;;;;0.98;0.20;;;;;;;13.30;100.00;97516.19;15265010;19;20021;-52
2023/09/22 22:23:28;;;;;;;0.32;0.20;;;;;;;13.29;100.00;97527.22;15274585;19;20015;-52
2023/09/22 22:28:57;;;;;;;1.02;0.30;;;;;;;13.29;100.00;97529.94;15276841;19;20024;-48
2023/09/22 22:34:22;;;;;;;0.50;0.30;;;;;;;13.25;100.00;97519.50;15277290;19;20018;-49
2023/09/22 22:39:49;;;;;;;0.40;0.30;;;;;;;13.18;100.00;97520.50;15277657;19;20021;-50
2023/09/22 22:45:15;;;;;;;0.20;0.20;;;;;;;13.14;100.00;97517.38;15275198;19;20021;-52
2023/09/22 22:50:41;;;;;;;0.20;0.20;;;;;;;13.10;100.00;97514.25;15266096;19;20010;-52
2023/09/22 22:56:09;;;;;;;1.00;0.30;;;;;;;13.09;100.00;97530.69;15267468;19;20018;-51
2023/09/22 23:01:41;;;;;;;0.63;0.22;;;;;;;13.07;100.00;97525.44;15165769;19;2004282;-51
2023/09/22 23:07:07;;;;;;;1.27;0.22;;;;;;;13.07;100.00;97530.84;15272405;19;20033;-51
2023/09/22 23:12:37;;;;;;;0.45;0.30;;;;;;;13.10;100.00;97526.94;15271317;19;20363;-51
2023/09/22 23:18:04;;;;;;;0.25;0.25;;;;;;;13.12;100.00;97543.78;15272920;19;20066;-50
2023/09/22 23:23:30;;;;;;;0.43;0.20;;;;;;;13.08;100.00;97550.63;15268832;19;20023;-51
2023/09/22 23:28:58;;;;;;;0.82;0.30;;;;;;;13.05;100.00;97556.44;15265523;19;20018;-52
2023/09/22 23:34:23;;;;;;;1.13;0.40;;;;;;;13.05;100.00;97572.66;15274675;19;20021;-51
2023/09/22 23:39:49;;;;;;;0.47;0.20;;;;;;;13.01;100.00;97576.78;15271978;19;20089;-49
2023/09/22 23:45:19;;;;;;;0.30;0.30;;;;;;;12.99;100.00;97585.09;15273696;19;20014;-50
2023/09/22 23:50:44;;;;;;;0.20;0.20;;;;;;;12.99;100.00;97603.19;15269788;19;20101;-51
2023/09/22 23:56:09;;;;;;;0.80;0.28;;;;;;;12.95;100.00;97608.16;15262753;19;20035;-52
